Time,TemperatureF,DewpointF,PressureIn,WindDirection,WindDirectionDegrees,WindSpeedMPH,WindSpeedGustMPH,Humidity,HourlyPrecipIn,Conditions,Clouds,dailyrainin,SoftwareType,DateUTC
2013-02-02 00:00:00,24.6,12.4,30.29,SE,135,0.0,0.0,59,0.00,,CLR,0.19,VWS V12.08,2013-02-02 05:00:00,
2013-02-02 00:01:00,24.6,12.4,30.29,SE,135,0.0,0.0,59,0.00,,CLR,0.19,VWS V12.08,2013-02-02 05:01:00,
2013-02-02 00:06:00,24.8,12.5,30.29,SE,135,0.0,0.0,59,0.00,,CLR,0.19,VWS V12.08,2013-02-02 05:06:00,
2013-02-02 00:11:00,25.0,13.1,30.29,SE,135,0.0,0.0,60,0.00,,CLR,0.19,VWS V12.08,2013-02-02 05:11:00,
2013-02-02 00:16:00,25.0,13.1,30.29,SE,135,0.0,0.0,60,0.00,,CLR,0.19,VWS V12.08,2013-02-02 05:16:00,
2013-02-02 00:21:00,25.2,13.2,30.29,SE,135,0.0,0.0,60,0.00,,CLR,0.19,VWS V12.08,2013-02-02 05:21:00,
2013-02-02 00:26:00,25.2,13.2,30.29,SE,135,0.0,0.0,60,0.00,,CLR,0.19,VWS V12.08,2013-02-02 05:26:00,
2013-02-02 00:31:00,25.0,13.1,30.28,SE,135,0.0,0.0,60,0.00,,CLR,0.19,VWS V12.08,2013-02-02 05:31:00,
2013-02-02 00:36:00,25.0,13.4,30.29,SE,135,0.0,0.0,61,0.00,,CLR,0.19,VWS V12.08,2013-02-02 05:36:00,
2013-02-02 00:41:00,24.6,13.1,30.29,SE,135,0.0,0.0,61,0.00,,CLR,0.19,VWS V12.08,2013-02-02 05:41:00,
2013-02-02 00:46:00,24.6,13.1,30.29,SE,135,0.0,0.0,61,0.00,,CLR,0.19,VWS V12.08,2013-02-02 05:46:00,
2013-02-02 00:51:00,24.6,13.1,30.29,SE,135,0.0,0.0,61,0.00,,CLR,0.19,VWS V12.08,2013-02-02 05:51:00,
2013-02-02 00:56:00,24.6,13.1,30.29,SE,135,0.0,0.0,61,0.00,,CLR,0.19,VWS V12.08,2013-02-02 05:56:00,
2013-02-02 01:01:00,24.6,13.5,30.29,SE,135,0.0,0.0,62,0.00,,CLR,0.19,VWS V12.08,2013-02-02 06:01:00,
2013-02-02 01:06:00,24.6,13.5,30.29,SE,135,0.0,0.0,62,0.00,,CLR,0.19,VWS V12.08,2013-02-02 06:06:00,
2013-02-02 01:11:00,25.0,13.8,30.29,SE,135,0.0,0.0,62,0.00,,CLR,0.19,VWS V12.08,2013-02-02 06:11:00,
2013-02-02 01:16:00,25.0,13.8,30.29,SE,135,0.0,0.0,62,0.00,,CLR,0.19,VWS V12.08,2013-02-02 06:16:00,
2013-02-02 01:21:00,25.0,13.8,30.29,SE,135,0.0,0.0,62,0.00,,CLR,0.19,VWS V12.08,2013-02-02 06:21:00,
2013-02-02 01:26:00,24.6,13.5,30.28,SE,135,0.0,0.0,62,0.00,,CLR,0.19,VWS V12.08,2013-02-02 06:26:00,
2013-02-02 01:31:00,24.6,13.5,30.28,SE,135,0.0,0.0,62,0.00,,CLR,0.19,VWS V12.08,2013-02-02 06:31:00,
2013-02-02 01:36:00,24.4,13.7,30.28,SE,135,0.0,0.0,63,0.00,,CLR,0.19,VWS V12.08,2013-02-02 06:36:00,
2013-02-02 01:41:00,24.4,13.7,30.28,SE,135,0.0,0.0,63,0.00,,CLR,0.19,VWS V12.08,2013-02-02 06:41:00,
2013-02-02 01:46:00,24.4,13.7,30.28,SE,135,0.0,0.0,63,0.00,,CLR,0.19,VWS V12.08,2013-02-02 06:46:00,
2013-02-02 01:51:00,24.4,13.7,30.28,SE,135,0.0,0.0,63,0.00,,CLR,0.19,VWS V12.08,2013-02-02 06:51:00,
2013-02-02 01:56:00,24.1,13.3,30.28,SE,135,0.0,0.0,63,0.00,,CLR,0.19,VWS V12.08,2013-02-02 06:56:00,
2013-02-02 02:01:00,24.1,13.3,30.29,SE,135,0.0,0.0,63,0.00,,CLR,0.19,VWS V12.08,2013-02-02 07:01:00,
2013-02-02 02:06:00,24.1,13.7,30.28,SE,135,0.0,0.0,64,0.00,,CLR,0.19,VWS V12.08,2013-02-02 07:06:00,
2013-02-02 02:11:00,24.1,13.3,30.28,SE,135,0.0,0.0,63,0.00,,CLR,0.19,VWS V12.08,2013-02-02 07:11:00,
2013-02-02 02:16:00,24.4,14.0,30.29,SE,135,0.0,0.0,64,0.00,,CLR,0.19,VWS V12.08,2013-02-02 07:16:00,
2013-02-02 02:21:00,24.4,14.0,30.28,SE,135,0.0,0.0,64,0.00,,CLR,0.19,VWS V12.08,2013-02-02 07:21:00,
2013-02-02 02:26:00,24.4,14.0,30.29,SE,135,0.0,0.0,64,0.00,,CLR,0.19,VWS V12.08,2013-02-02 07:26:00,
2013-02-02 02:31:00,24.4,14.0,30.28,SE,135,0.0,0.0,64,0.00,,CLR,0.19,VWS V12.08,2013-02-02 07:31:00,
2013-02-02 02:36:00,24.4,14.0,30.28,SE,135,0.0,0.0,64,0.00,,CLR,0.19,VWS V12.08,2013-02-02 07:36:00,
2013-02-02 02:41:00,24.1,13.7,30.28,SE,135,0.0,0.0,64,0.00,,CLR,0.19,VWS V12.08,2013-02-02 07:41:00,
2013-02-02 02:46:00,24.1,13.7,30.28,SE,135,0.0,0.0,64,0.00,,CLR,0.19,VWS V12.08,2013-02-02 07:46:00,
2013-02-02 02:51:00,24.1,14.0,30.28,SE,135,0.0,0.0,65,0.00,,CLR,0.19,VWS V12.08,2013-02-02 07:51:00,
2013-02-02 02:56:00,23.9,13.9,30.28,SE,135,0.0,0.0,65,0.00,,CLR,0.19,VWS V12.08,2013-02-02 07:56:00,
2013-02-02 03:01:00,23.5,13.5,30.28,SE,135,0.0,0.0,65,0.00,,CLR,0.19,VWS V12.08,2013-02-02 08:01:00,
2013-02-02 03:07:00,23.5,13.5,30.27,SE,135,0.0,0.0,65,0.00,,CLR,0.19,VWS V12.08,2013-02-02 08:07:00,
2013-02-02 03:12:00,23.5,13.9,30.27,SE,135,0.0,0.0,66,0.00,,CLR,0.19,VWS V12.08,2013-02-02 08:12:00,
2013-02-02 03:17:00,23.5,13.9,30.27,SE,135,0.0,0.0,66,0.00,,CLR,0.19,VWS V12.08,2013-02-02 08:17:00,
2013-02-02 03:22:00,23.4,13.7,30.27,SE,135,0.0,0.0,66,0.00,,CLR,0.19,VWS V12.08,2013-02-02 08:22:00,
2013-02-02 03:27:00,23.2,13.5,30.27,SE,135,0.0,0.0,66,0.00,,CLR,0.19,VWS V12.08,2013-02-02 08:27:00,
2013-02-02 03:32:00,23.0,13.4,30.27,SE,135,0.0,0.0,66,0.00,,CLR,0.19,VWS V12.08,2013-02-02 08:32:00,
2013-02-02 03:37:00,22.8,13.5,30.27,SE,135,0.0,0.0,67,0.00,,CLR,0.19,VWS V12.08,2013-02-02 08:37:00,
2013-02-02 03:42:00,22.8,13.5,30.27,SE,135,0.0,0.0,67,0.00,,CLR,0.19,VWS V12.08,2013-02-02 08:42:00,
2013-02-02 03:47:00,23.2,13.9,30.27,SE,135,0.0,0.0,67,0.00,,CLR,0.19,VWS V12.08,2013-02-02 08:47:00,
2013-02-02 03:52:00,23.2,13.9,30.27,SE,135,0.0,0.0,67,0.00,,CLR,0.19,VWS V12.08,2013-02-02 08:52:00,
2013-02-02 03:57:00,23.2,13.9,30.27,SE,135,0.0,0.0,67,0.00,,CLR,0.19,VWS V12.08,2013-02-02 08:57:00,
2013-02-02 04:02:00,23.4,14.4,30.27,SE,135,0.0,0.0,68,0.00,,CLR,0.19,VWS V12.08,2013-02-02 09:02:00,
2013-02-02 04:07:00,23.5,14.2,30.27,SE,135,0.0,0.0,67,0.00,,CLR,0.19,VWS V12.08,2013-02-02 09:07:00,
2013-02-02 04:12:00,23.5,14.2,30.27,SE,135,0.0,0.0,67,0.00,,CLR,0.19,VWS V12.08,2013-02-02 09:12:00,
2013-02-02 04:17:00,23.5,14.2,30.27,SE,135,0.0,0.0,67,0.00,,CLR,0.19,VWS V12.08,2013-02-02 09:17:00,
2013-02-02 04:22:00,23.4,14.0,30.27,SE,135,0.0,0.0,67,0.00,,CLR,0.19,VWS V12.08,2013-02-02 09:22:00,
2013-02-02 04:27:00,23.4,14.0,30.27,SE,135,0.0,0.0,67,0.00,,CLR,0.19,VWS V12.08,2013-02-02 09:27:00,
2013-02-02 04:32:00,23.4,14.0,30.27,SE,135,0.0,0.0,67,0.00,,CLR,0.19,VWS V12.08,2013-02-02 09:32:00,
2013-02-02 04:37:00,23.4,14.0,30.27,SE,135,0.0,0.0,67,0.00,,CLR,0.19,VWS V12.08,2013-02-02 09:37:00,
2013-02-02 04:42:00,23.5,14.6,30.27,SE,135,0.0,0.0,68,0.00,,CLR,0.19,VWS V12.08,2013-02-02 09:42:00,
2013-02-02 04:47:00,23.5,14.6,30.27,SE,135,0.0,0.0,68,0.00,,CLR,0.19,VWS V12.08,2013-02-02 09:47:00,
2013-02-02 04:52:00,23.5,14.6,30.27,SE,135,0.0,0.0,68,0.00,,CLR,0.19,VWS V12.08,2013-02-02 09:52:00,
2013-02-02 04:57:00,23.5,14.2,30.27,SE,135,0.0,0.0,67,0.00,,CLR,0.19,VWS V12.08,2013-02-02 09:57:00,
2013-02-02 05:02:00,23.5,14.2,30.27,SE,135,0.0,0.0,67,0.00,,CLR,0.19,VWS V12.08,2013-02-02 10:02:00,
2013-02-02 05:07:00,23.5,14.2,30.27,SE,135,0.0,0.0,67,0.00,,CLR,0.19,VWS V12.08,2013-02-02 10:07:00,
2013-02-02 05:12:00,23.5,14.2,30.26,ESE,112,0.0,0.0,67,0.00,,CLR,0.19,VWS V12.08,2013-02-02 10:12:00,
2013-02-02 05:17:00,23.5,14.2,30.27,ESE,112,0.0,0.0,67,0.00,,CLR,0.19,VWS V12.08,2013-02-02 10:17:00,
2013-02-02 05:22:00,23.4,14.0,30.27,ESE,112,0.0,0.0,67,0.00,,CLR,0.19,VWS V12.08,2013-02-02 10:22:00,
2013-02-02 05:27:00,23.2,13.9,30.27,ESE,112,0.0,0.0,67,0.00,,CLR,0.19,VWS V12.08,2013-02-02 10:27:00,
2013-02-02 05:32:00,23.2,13.9,30.27,ESE,112,0.0,0.0,67,0.00,,CLR,0.19,VWS V12.08,2013-02-02 10:32:00,
2013-02-02 05:37:00,22.8,13.5,30.27,ESE,112,0.0,0.0,67,0.00,,CLR,0.19,VWS V12.08,2013-02-02 10:37:00,
2013-02-02 05:42:00,22.8,13.5,30.27,ESE,112,0.0,0.0,67,0.00,,CLR,0.19,VWS V12.08,2013-02-02 10:42:00,
2013-02-02 05:47:00,22.8,13.9,30.27,ESE,112,0.0,0.0,68,0.00,,CLR,0.19,VWS V12.08,2013-02-02 10:47:00,
2013-02-02 05:52:00,22.8,13.9,30.27,ESE,112,0.0,0.0,68,0.00,,CLR,0.19,VWS V12.08,2013-02-02 10:52:00,
2013-02-02 05:57:00,22.8,13.9,30.27,ESE,112,0.0,0.0,68,0.00,,CLR,0.19,VWS V12.08,2013-02-02 10:57:00,
2013-02-02 06:02:00,22.8,13.9,30.27,ESE,112,0.0,0.0,68,0.00,,CLR,0.00,VWS V12.08,2013-02-02 11:02:00,
2013-02-02 06:07:00,22.6,13.7,30.28,ESE,112,0.0,0.0,68,0.00,,CLR,0.00,VWS V12.08,2013-02-02 11:07:00,
2013-02-02 06:12:00,22.5,13.5,30.29,ESE,112,0.0,0.0,68,0.00,,CLR,0.00,VWS V12.08,2013-02-02 11:12:00,
2013-02-02 06:17:00,22.3,13.3,30.28,ESE,112,0.0,0.0,68,0.00,,CLR,0.00,VWS V12.08,2013-02-02 11:17:00,
2013-02-02 06:22:00,22.3,13.3,30.28,ESE,112,0.0,0.0,68,0.00,,CLR,0.00,VWS V12.08,2013-02-02 11:22:00,
2013-02-02 06:27:00,22.1,13.2,30.29,ESE,112,0.0,0.0,68,0.00,,CLR,0.00,VWS V12.08,2013-02-02 11:27:00,
2013-02-02 06:32:00,21.9,13.3,30.29,ESE,112,0.0,0.0,69,0.00,,CLR,0.00,VWS V12.08,2013-02-02 11:32:00,
2013-02-02 06:37:00,21.9,13.3,30.29,ESE,112,0.0,0.0,69,0.00,,CLR,0.00,VWS V12.08,2013-02-02 11:37:00,
2013-02-02 06:42:00,21.9,13.3,30.29,ESE,112,0.0,0.0,69,0.00,,CLR,0.00,VWS V12.08,2013-02-02 11:42:00,
2013-02-02 06:47:00,21.9,13.3,30.29,ESE,112,0.0,0.0,69,0.00,,CLR,0.00,VWS V12.08,2013-02-02 11:47:00,
2013-02-02 06:52:00,21.9,13.3,30.29,ESE,112,0.0,0.0,69,0.00,,CLR,0.00,VWS V12.08,2013-02-02 11:52:00,
2013-02-02 06:57:00,21.9,13.3,30.29,ESE,112,0.0,0.0,69,0.00,,CLR,0.00,VWS V12.08,2013-02-02 11:57:00,
2013-02-02 07:02:00,21.9,13.3,30.29,ESE,112,0.0,0.0,69,0.00,,CLR,0.00,VWS V12.08,2013-02-02 12:02:00,
2013-02-02 07:07:00,21.9,13.3,30.29,ESE,112,0.0,0.0,69,0.00,,CLR,0.00,VWS V12.08,2013-02-02 12:07:00,
2013-02-02 07:12:00,21.7,13.1,30.30,West,270,0.0,0.0,69,0.00,,CLR,0.00,VWS V12.08,2013-02-02 12:12:00,
2013-02-02 07:17:00,21.7,13.1,30.30,West,270,0.0,0.0,69,0.00,,CLR,0.00,VWS V12.08,2013-02-02 12:17:00,
2013-02-02 07:22:00,21.7,13.1,30.30,West,270,0.0,0.0,69,0.00,,CLR,0.00,VWS V12.08,2013-02-02 12:22:00,
2013-02-02 07:27:00,21.9,13.3,30.30,West,270,0.0,0.0,69,0.00,,CLR,0.00,VWS V12.08,2013-02-02 12:27:00,
2013-02-02 07:32:00,21.9,13.6,30.30,West,270,0.0,0.0,70,0.00,,CLR,0.00,VWS V12.08,2013-02-02 12:32:00,
2013-02-02 07:37:00,22.1,13.8,30.30,West,270,0.0,0.0,70,0.00,,CLR,0.00,VWS V12.08,2013-02-02 12:37:00,
2013-02-02 07:42:00,22.5,13.5,30.30,West,270,0.0,0.0,68,0.00,,CLR,0.00,VWS V12.08,2013-02-02 12:42:00,
2013-02-02 07:47:00,22.6,13.7,30.30,West,270,0.0,0.0,68,0.00,,CLR,0.00,VWS V12.08,2013-02-02 12:47:00,
2013-02-02 07:52:00,22.8,13.5,30.30,West,270,0.0,0.0,67,0.00,,CLR,0.00,VWS V12.08,2013-02-02 12:52:00,
2013-02-02 07:57:00,22.8,13.5,30.30,West,270,0.0,0.0,67,0.00,,CLR,0.00,VWS V12.08,2013-02-02 12:57:00,
2013-02-02 08:02:00,23.0,13.7,30.30,NNW,338,0.0,0.0,67,0.00,,CLR,0.00,VWS V12.08,2013-02-02 13:02:00,
2013-02-02 08:07:00,23.0,13.7,30.30,NNW,338,0.0,0.0,67,0.00,,CLR,0.00,VWS V12.08,2013-02-02 13:07:00,
2013-02-02 08:12:00,23.0,13.7,30.30,NNW,338,0.0,0.0,67,0.00,,CLR,0.00,VWS V12.08,2013-02-02 13:12:00,
2013-02-02 08:17:00,23.0,13.7,30.30,NNW,338,0.0,0.0,67,0.00,,CLR,0.00,VWS V12.08,2013-02-02 13:17:00,
2013-02-02 08:22:00,23.4,14.0,30.30,NNW,338,0.0,0.0,67,0.00,,CLR,0.00,VWS V12.08,2013-02-02 13:22:00,
2013-02-02 08:27:00,23.5,14.2,30.30,NNW,338,0.0,0.0,67,0.00,,CLR,0.00,VWS V12.08,2013-02-02 13:27:00,
2013-02-02 08:32:00,23.5,14.2,30.30,NNW,338,0.0,0.0,67,0.00,,CLR,0.00,VWS V12.08,2013-02-02 13:32:00,
2013-02-02 08:37:00,24.1,14.4,30.31,NNW,338,0.0,0.0,66,0.00,,CLR,0.00,VWS V12.08,2013-02-02 13:37:00,
2013-02-02 08:42:00,24.6,14.9,30.30,NW,315,0.0,0.0,66,0.00,,CLR,0.00,VWS V12.08,2013-02-02 13:42:00,
2013-02-02 08:47:00,24.6,14.9,30.30,NNW,338,0.0,0.0,66,0.00,,CLR,0.00,VWS V12.08,2013-02-02 13:47:00,
2013-02-02 08:52:00,25.5,15.8,30.30,NNW,338,0.0,0.0,66,0.00,,CLR,0.00,VWS V12.08,2013-02-02 13:52:00,
2013-02-02 08:57:00,26.4,15.9,30.31,NW,315,0.0,0.0,64,0.00,,CLR,0.00,VWS V12.08,2013-02-02 13:57:00,
2013-02-02 09:02:00,27.1,15.5,30.30,NW,315,0.7,0.7,61,0.00,,CLR,0.00,VWS V12.08,2013-02-02 14:02:00,
2013-02-02 09:07:00,27.7,15.6,30.30,NNW,338,0.0,0.7,60,0.00,,CLR,0.00,VWS V12.08,2013-02-02 14:07:00,
2013-02-02 09:12:00,28.0,16.0,30.30,NNW,338,0.0,0.7,60,0.00,,CLR,0.00,VWS V12.08,2013-02-02 14:12:00,
2013-02-02 09:17:00,28.6,15.3,30.29,NE,45,0.0,0.7,57,0.00,,CLR,0.00,VWS V12.08,2013-02-02 14:17:00,
2013-02-02 09:22:00,28.8,15.5,30.29,NNE,22,0.0,0.0,57,0.00,,CLR,0.00,VWS V12.08,2013-02-02 14:22:00,
2013-02-02 09:27:00,28.9,15.2,30.29,NE,45,0.0,0.0,56,0.00,,CLR,0.00,VWS V12.08,2013-02-02 14:27:00,
2013-02-02 09:32:00,28.9,14.8,30.29,NW,315,0.0,1.8,55,0.00,,CLR,0.00,VWS V12.08,2013-02-02 14:32:00,
2013-02-02 09:37:00,28.9,14.8,30.28,NNW,338,0.0,1.8,55,0.00,,CLR,0.00,VWS V12.08,2013-02-02 14:37:00,
2013-02-02 09:42:00,29.1,15.0,30.29,NNE,22,0.0,0.0,55,0.00,,CLR,0.00,VWS V12.08,2013-02-02 14:42:00,
2013-02-02 09:47:00,29.5,15.3,30.29,North,0,0.0,0.0,55,0.00,,CLR,0.00,VWS V12.08,2013-02-02 14:47:00,
2013-02-02 09:52:00,29.8,15.2,30.29,NNE,22,0.0,0.0,54,0.00,,CLR,0.00,VWS V12.08,2013-02-02 14:52:00,
2013-02-02 09:57:00,30.0,15.0,30.28,NNE,22,0.4,0.4,53,0.00,,CLR,0.00,VWS V12.08,2013-02-02 14:57:00,
2013-02-02 10:02:00,30.0,15.0,30.28,West,270,0.0,0.0,53,0.00,,CLR,0.00,VWS V12.08,2013-02-02 15:02:00,
2013-02-02 10:07:00,30.0,15.0,30.27,West,270,0.0,0.0,53,0.00,,CLR,0.00,VWS V12.08,2013-02-02 15:07:00,
2013-02-02 10:12:00,30.9,15.4,30.27,WSW,248,0.0,0.0,52,0.00,,CLR,0.00,VWS V12.08,2013-02-02 15:12:00,
2013-02-02 10:17:00,31.3,15.3,30.27,West,270,1.1,4.3,51,0.00,,CLR,0.00,VWS V12.08,2013-02-02 15:17:00,
2013-02-02 10:22:00,31.6,15.1,30.27,NW,315,0.0,2.7,50,0.00,,CLR,0.00,VWS V12.08,2013-02-02 15:22:00,
2013-02-02 10:27:00,31.8,15.8,30.26,NNE,22,0.0,2.7,51,0.00,,CLR,0.00,VWS V12.08,2013-02-02 15:27:00,
2013-02-02 10:32:00,32.4,15.4,30.26,ENE,68,0.7,2.7,49,0.00,,CLR,0.00,VWS V12.08,2013-02-02 15:32:00,
2013-02-02 10:37:00,32.9,15.9,30.25,East,90,0.0,2.7,49,0.00,,CLR,0.00,VWS V12.08,2013-02-02 15:37:00,
2013-02-02 10:42:00,33.6,15.6,30.25,WNW,292,0.0,0.9,47,0.00,,CLR,0.00,VWS V12.08,2013-02-02 15:42:00,
2013-02-02 10:47:00,33.8,15.7,30.25,WNW,292,0.0,0.9,47,0.00,,CLR,0.00,VWS V12.08,2013-02-02 15:47:00,
2013-02-02 10:52:00,34.2,15.6,30.24,ENE,68,0.0,1.8,46,0.00,,CLR,0.00,VWS V12.08,2013-02-02 15:52:00,
2013-02-02 10:57:00,34.3,16.2,30.24,ESE,112,0.0,2.2,47,0.00,,CLR,0.00,VWS V12.08,2013-02-02 15:57:00,
2013-02-02 11:02:00,35.1,16.4,30.24,West,270,0.0,2.5,46,0.00,,CLR,0.00,VWS V12.08,2013-02-02 16:02:00,
2013-02-02 11:07:00,35.2,15.0,30.24,West,270,0.0,4.3,43,0.00,,CLR,0.00,VWS V12.08,2013-02-02 16:07:00,
2013-02-02 11:12:00,35.4,15.7,30.24,WNW,292,0.0,6.5,44,0.00,,CLR,0.00,VWS V12.08,2013-02-02 16:12:00,
2013-02-02 11:17:00,35.8,16.0,30.23,WSW,248,0.7,6.5,44,0.00,,CLR,0.00,VWS V12.08,2013-02-02 16:17:00,
2013-02-02 11:22:00,36.0,16.2,30.23,NE,45,0.0,0.0,44,0.00,,CLR,0.00,VWS V12.08,2013-02-02 16:22:00,
2013-02-02 11:27:00,36.3,16.5,30.23,SSW,202,0.0,0.0,44,0.00,,CLR,0.00,VWS V12.08,2013-02-02 16:27:00,
2013-02-02 11:32:00,37.0,17.7,30.22,West,270,0.0,1.1,45,0.00,,CLR,0.00,VWS V12.08,2013-02-02 16:32:00,
2013-02-02 11:37:00,37.4,16.4,30.21,WNW,292,0.0,5.1,42,0.00,,CLR,0.00,VWS V12.08,2013-02-02 16:37:00,
2013-02-02 11:42:00,38.1,16.5,30.22,SW,225,3.8,3.8,41,0.00,,CLR,0.00,VWS V12.08,2013-02-02 16:42:00,
2013-02-02 11:47:00,38.5,16.8,30.21,West,270,0.0,3.8,41,0.00,,CLR,0.00,VWS V12.08,2013-02-02 16:47:00,
2013-02-02 11:52:00,39.0,17.9,30.20,SW,225,1.3,3.8,42,0.00,,CLR,0.00,VWS V12.08,2013-02-02 16:52:00,
2013-02-02 11:57:00,39.6,16.7,30.21,WNW,292,4.5,6.7,39,0.00,,CLR,0.00,VWS V12.08,2013-02-02 16:57:00,
2013-02-02 12:02:00,39.6,16.7,30.20,West,270,0.0,2.0,39,0.00,,CLR,0.00,VWS V12.08,2013-02-02 17:02:00,
2013-02-02 12:07:00,39.9,16.4,30.20,WSW,248,4.9,7.2,38,0.00,,CLR,0.00,VWS V12.08,2013-02-02 17:07:00,
2013-02-02 12:12:00,39.9,17.0,30.19,NNE,22,0.0,7.2,39,0.00,,CLR,0.00,VWS V12.08,2013-02-02 17:12:00,
2013-02-02 12:17:00,40.1,16.5,30.19,West,270,4.3,7.2,38,0.00,,CLR,0.00,VWS V12.08,2013-02-02 17:17:00,
2013-02-02 12:22:00,40.3,16.7,30.19,WSW,248,0.0,3.6,38,0.00,,CLR,0.00,VWS V12.08,2013-02-02 17:22:00,
2013-02-02 12:27:00,40.3,16.1,30.19,ENE,68,0.0,3.6,37,0.00,,CLR,0.00,VWS V12.08,2013-02-02 17:27:00,
2013-02-02 12:32:00,40.6,16.4,30.18,WNW,292,2.0,5.6,37,0.00,,CLR,0.00,VWS V12.08,2013-02-02 17:32:00,
2013-02-02 12:37:00,40.8,16.6,30.17,West,270,0.9,5.6,37,0.00,,CLR,0.00,VWS V12.08,2013-02-02 17:37:00,
2013-02-02 12:42:00,41.4,17.7,30.17,WNW,292,1.8,2.0,38,0.00,,CLR,0.00,VWS V12.08,2013-02-02 17:42:00,
2013-02-02 12:47:00,41.5,17.2,30.17,West,270,4.3,4.3,37,0.00,,CLR,0.00,VWS V12.08,2013-02-02 17:47:00,
2013-02-02 12:52:00,41.2,16.3,30.16,WSW,248,0.0,5.6,36,0.00,,CLR,0.00,VWS V12.08,2013-02-02 17:52:00,
2013-02-02 12:57:00,41.2,16.9,30.16,SE,135,0.0,5.6,37,0.00,,CLR,0.00,VWS V12.08,2013-02-02 17:57:00,
2013-02-02 13:02:00,41.5,17.2,30.15,SW,225,1.3,1.6,37,0.00,,CLR,0.00,VWS V12.08,2013-02-02 18:02:00,
2013-02-02 13:07:00,41.9,18.2,30.15,WSW,248,0.0,1.6,38,0.00,,CLR,0.00,VWS V12.08,2013-02-02 18:07:00,
2013-02-02 13:12:00,42.6,18.2,30.15,WSW,248,0.0,1.6,37,0.00,,CLR,0.00,VWS V12.08,2013-02-02 18:12:00,
2013-02-02 13:17:00,43.2,18.0,30.14,WNW,292,0.0,5.1,36,0.00,,CLR,0.00,VWS V12.08,2013-02-02 18:17:00,
2013-02-02 13:22:00,43.5,18.4,30.13,ENE,68,0.0,4.9,36,0.00,,CLR,0.00,VWS V12.08,2013-02-02 18:22:00,
2013-02-02 13:28:00,44.1,19.5,30.13,East,90,0.0,4.9,37,0.00,,CLR,0.00,VWS V12.08,2013-02-02 18:28:00,
2013-02-02 13:33:00,44.2,19.0,30.13,South,180,0.0,5.6,36,0.00,,CLR,0.00,VWS V12.08,2013-02-02 18:33:00,
2013-02-02 13:38:00,44.4,19.1,30.12,ESE,112,0.0,5.6,36,0.00,,CLR,0.00,VWS V12.08,2013-02-02 18:38:00,
2013-02-02 13:43:00,44.2,19.0,30.12,NW,315,0.0,0.0,36,0.00,,CLR,0.00,VWS V12.08,2013-02-02 18:43:00,
2013-02-02 13:48:00,43.9,18.0,30.11,North,0,0.0,2.9,35,0.00,,CLR,0.00,VWS V12.08,2013-02-02 18:48:00,
2013-02-02 13:53:00,43.5,17.7,30.11,NW,315,0.7,2.9,35,0.00,,CLR,0.00,VWS V12.08,2013-02-02 18:53:00,
2013-02-02 13:58:00,43.0,17.9,30.11,NW,315,0.0,2.9,36,0.00,,CLR,0.00,VWS V12.08,2013-02-02 18:58:00,
2013-02-02 14:03:00,42.6,17.5,30.11,SSE,158,0.0,0.0,36,0.00,,CLR,0.00,VWS V12.08,2013-02-02 19:03:00,
2013-02-02 14:08:00,42.4,18.0,30.11,SSW,202,0.0,4.7,37,0.00,,CLR,0.00,VWS V12.08,2013-02-02 19:08:00,
2013-02-02 14:13:00,42.4,18.0,30.10,SSW,202,0.0,4.7,37,0.00,,CLR,0.00,VWS V12.08,2013-02-02 19:13:00,
2013-02-02 14:18:00,42.6,18.2,30.10,West,270,0.0,4.7,37,0.00,,CLR,0.00,VWS V12.08,2013-02-02 19:18:00,
2013-02-02 14:23:00,42.6,18.2,30.11,West,270,0.0,1.6,37,0.00,,CLR,0.00,VWS V12.08,2013-02-02 19:23:00,
2013-02-02 14:28:00,42.4,18.0,30.10,WNW,292,0.0,1.6,37,0.00,,CLR,0.00,VWS V12.08,2013-02-02 19:28:00,
2013-02-02 14:33:00,42.4,18.0,30.10,SSE,158,0.0,3.4,37,0.00,,CLR,0.00,VWS V12.08,2013-02-02 19:33:00,
2013-02-02 14:38:00,42.4,18.6,30.09,SSE,158,0.0,3.4,38,0.00,,CLR,0.00,VWS V12.08,2013-02-02 19:38:00,
2013-02-02 14:43:00,42.4,18.6,30.09,ESE,112,2.0,3.1,38,0.00,,CLR,0.00,VWS V12.08,2013-02-02 19:43:00,
2013-02-02 14:48:00,42.6,18.2,30.09,South,180,0.0,3.6,37,0.00,,CLR,0.00,VWS V12.08,2013-02-02 19:48:00,
2013-02-02 14:53:00,42.6,18.8,30.08,SSE,158,0.0,3.6,38,0.00,,CLR,0.00,VWS V12.08,2013-02-02 19:53:00,
2013-02-02 14:58:00,42.6,18.8,30.09,SE,135,0.0,3.6,38,0.00,,CLR,0.00,VWS V12.08,2013-02-02 19:58:00,
2013-02-02 15:03:00,42.8,19.0,30.08,ENE,68,0.0,0.0,38,0.00,,CLR,0.00,VWS V12.08,2013-02-02 20:03:00,
2013-02-02 15:08:00,42.6,18.8,30.08,SE,135,2.7,2.7,38,0.00,,CLR,0.00,VWS V12.08,2013-02-02 20:08:00,
2013-02-02 15:13:00,42.6,18.2,30.07,SSE,158,0.0,4.0,37,0.00,,CLR,0.00,VWS V12.08,2013-02-02 20:13:00,
2013-02-02 15:18:00,42.1,17.7,30.07,SSE,158,0.0,4.0,37,0.00,,CLR,0.00,VWS V12.08,2013-02-02 20:18:00,
2013-02-02 15:23:00,41.7,17.4,30.07,ENE,68,1.1,1.1,37,0.00,,CLR,0.00,VWS V12.08,2013-02-02 20:23:00,
2013-02-02 15:28:00,41.7,17.4,30.07,ENE,68,1.6,4.7,37,0.00,,CLR,0.00,VWS V12.08,2013-02-02 20:28:00,
2013-02-02 15:33:00,41.7,17.4,30.07,East,90,0.0,6.5,37,0.00,,CLR,0.00,VWS V12.08,2013-02-02 20:33:00,
2013-02-02 15:38:00,41.7,17.4,30.06,ENE,68,0.0,6.5,37,0.00,,CLR,0.00,VWS V12.08,2013-02-02 20:38:00,
2013-02-02 15:43:00,41.9,17.5,30.06,ESE,112,0.0,0.0,37,0.00,,CLR,0.00,VWS V12.08,2013-02-02 20:43:00,
2013-02-02 15:48:00,42.1,17.7,30.06,SE,135,3.4,5.4,37,0.00,,CLR,0.00,VWS V12.08,2013-02-02 20:48:00,
2013-02-02 15:53:00,42.4,18.0,30.06,SSE,158,2.9,6.0,37,0.00,,CLR,0.00,VWS V12.08,2013-02-02 20:53:00,
2013-02-02 15:58:00,42.4,18.0,30.06,SE,135,0.0,6.0,37,0.00,,CLR,0.00,VWS V12.08,2013-02-02 20:58:00,
2013-02-02 16:03:00,42.4,18.6,30.06,SSW,202,0.0,1.6,38,0.00,,CLR,0.00,VWS V12.08,2013-02-02 21:03:00,
2013-02-02 16:08:00,42.4,18.6,30.05,SW,225,0.0,1.6,38,0.00,,CLR,0.00,VWS V12.08,2013-02-02 21:08:00,
2013-02-02 16:13:00,42.6,18.2,30.05,East,90,0.0,4.0,37,0.00,,CLR,0.00,VWS V12.08,2013-02-02 21:13:00,
2013-02-02 16:18:00,42.6,18.8,30.05,ESE,112,0.0,6.5,38,0.00,,CLR,0.00,VWS V12.08,2013-02-02 21:18:00,
2013-02-02 16:23:00,42.6,18.2,30.05,SSE,158,1.3,6.5,37,0.00,,CLR,0.00,VWS V12.08,2013-02-02 21:23:00,
2013-02-02 16:28:00,42.4,18.6,30.05,SSW,202,1.1,6.5,38,0.00,,CLR,0.00,VWS V12.08,2013-02-02 21:28:00,
2013-02-02 16:33:00,42.4,18.6,30.04,SE,135,0.0,6.5,38,0.00,,CLR,0.00,VWS V12.08,2013-02-02 21:33:00,
2013-02-02 16:38:00,42.4,19.2,30.04,ENE,68,0.0,6.5,39,0.00,,CLR,0.00,VWS V12.08,2013-02-02 21:38:00,
2013-02-02 16:43:00,42.4,18.6,30.04,ENE,68,0.0,0.0,38,0.00,,CLR,0.00,VWS V12.08,2013-02-02 21:43:00,
2013-02-02 16:48:00,42.4,18.6,30.04,ENE,68,0.0,0.0,38,0.00,,CLR,0.00,VWS V12.08,2013-02-02 21:48:00,
2013-02-02 16:53:00,42.1,18.9,30.04,ENE,68,0.0,0.0,39,0.00,,CLR,0.00,VWS V12.08,2013-02-02 21:53:00,
2013-02-02 16:58:00,41.9,18.8,30.04,ENE,68,0.0,0.0,39,0.00,,CLR,0.00,VWS V12.08,2013-02-02 21:58:00,
2013-02-02 17:03:00,41.9,19.4,30.04,ENE,68,0.0,0.0,40,0.00,,CLR,0.00,VWS V12.08,2013-02-02 22:03:00,
2013-02-02 17:08:00,41.7,19.2,30.03,ENE,68,0.0,0.0,40,0.00,,CLR,0.00,VWS V12.08,2013-02-02 22:08:00,
2013-02-02 17:13:00,41.5,19.0,30.04,ENE,68,0.0,0.0,40,0.00,,CLR,0.00,VWS V12.08,2013-02-02 22:13:00,
2013-02-02 17:18:00,41.4,18.9,30.04,SE,135,0.0,0.0,40,0.00,,CLR,0.00,VWS V12.08,2013-02-02 22:18:00,
2013-02-02 17:23:00,41.2,19.3,30.03,SE,135,0.0,0.0,41,0.00,,CLR,0.00,VWS V12.08,2013-02-02 22:23:00,
2013-02-02 17:28:00,40.8,19.0,30.03,East,90,0.0,0.0,41,0.00,,CLR,0.00,VWS V12.08,2013-02-02 22:28:00,
2013-02-02 17:33:00,40.8,19.0,30.03,East,90,0.0,0.0,41,0.00,,CLR,0.00,VWS V12.08,2013-02-02 22:33:00,
2013-02-02 17:38:00,40.5,18.6,30.03,ESE,112,0.0,0.0,41,0.00,,CLR,0.00,VWS V12.08,2013-02-02 22:38:00,
2013-02-02 17:43:00,40.3,19.6,30.02,ESE,112,0.0,0.0,43,0.00,,CLR,0.00,VWS V12.08,2013-02-02 22:43:00,
2013-02-02 17:48:00,39.9,18.7,30.02,SSW,202,0.0,0.0,42,0.00,,CLR,0.00,VWS V12.08,2013-02-02 22:48:00,
2013-02-02 17:53:00,39.7,19.1,30.02,SSW,202,0.0,0.0,43,0.00,,CLR,0.00,VWS V12.08,2013-02-02 22:53:00,
2013-02-02 17:58:00,39.4,18.8,30.02,SSE,158,0.0,0.0,43,0.00,,CLR,0.00,VWS V12.08,2013-02-02 22:58:00,
2013-02-02 18:03:00,39.2,19.1,30.01,SSE,158,0.0,0.0,44,0.00,,CLR,0.00,VWS V12.08,2013-02-02 23:03:00,
2013-02-02 18:08:00,39.0,19.5,30.02,SSE,158,0.0,0.0,45,0.00,,CLR,0.00,VWS V12.08,2013-02-02 23:08:00,
2013-02-02 18:13:00,38.8,19.3,30.01,ESE,112,0.0,1.3,45,0.00,,CLR,0.00,VWS V12.08,2013-02-02 23:13:00,
2013-02-02 18:18:00,38.8,19.8,30.01,ESE,112,0.0,1.3,46,0.00,,CLR,0.00,VWS V12.08,2013-02-02 23:18:00,
2013-02-02 18:23:00,38.8,19.8,30.01,ESE,112,0.0,0.0,46,0.00,,CLR,0.00,VWS V12.08,2013-02-02 23:23:00,
2013-02-02 18:28:00,38.8,19.8,30.00,ESE,112,0.0,0.0,46,0.00,,CLR,0.00,VWS V12.08,2013-02-02 23:28:00,
2013-02-02 18:33:00,38.7,20.2,30.00,ESE,112,0.0,0.4,47,0.00,,CLR,0.00,VWS V12.08,2013-02-02 23:33:00,
2013-02-02 18:38:00,38.5,20.0,30.00,ESE,112,0.0,0.4,47,0.00,,CLR,0.00,VWS V12.08,2013-02-02 23:38:00,
2013-02-02 18:43:00,38.3,20.4,30.00,SE,135,0.0,0.0,48,0.00,,CLR,0.00,VWS V12.08,2013-02-02 23:43:00,
2013-02-02 18:48:00,38.1,20.2,30.00,SSE,158,2.7,2.7,48,0.00,,CLR,0.00,VWS V12.08,2013-02-02 23:48:00,
2013-02-02 18:53:00,38.1,20.7,30.01,SSW,202,4.0,5.1,49,0.00,,CLR,0.00,VWS V12.08,2013-02-02 23:53:00,
2013-02-02 18:58:00,38.3,21.3,30.01,SSE,158,0.0,5.1,50,0.00,,CLR,0.00,VWS V12.08,2013-02-02 23:58:00,
2013-02-02 19:03:00,38.5,21.9,30.00,SSE,158,0.0,2.9,51,0.00,,CLR,0.00,VWS V12.08,2013-02-03 00:03:00,
2013-02-02 19:08:00,38.7,22.1,30.00,SE,135,0.0,2.9,51,0.00,,CLR,0.00,VWS V12.08,2013-02-03 00:08:00,
2013-02-02 19:13:00,38.8,22.7,30.00,SSE,158,0.0,2.9,52,0.00,,CLR,0.00,VWS V12.08,2013-02-03 00:13:00,
2013-02-02 19:18:00,38.7,23.0,30.00,South,180,0.0,5.8,53,0.00,,CLR,0.00,VWS V12.08,2013-02-03 00:18:00,
2013-02-02 19:23:00,38.8,24.1,30.00,SSE,158,0.0,4.0,55,0.00,,CLR,0.00,VWS V12.08,2013-02-03 00:23:00,
2013-02-02 19:28:00,38.8,24.9,30.00,SE,135,0.0,4.0,57,0.00,,CLR,0.00,VWS V12.08,2013-02-03 00:28:00,
2013-02-02 19:33:00,38.8,25.3,30.00,SSE,158,0.0,4.0,58,0.00,,CLR,0.00,VWS V12.08,2013-02-03 00:33:00,
2013-02-02 19:38:00,38.8,25.8,30.01,West,270,0.0,4.9,59,0.00,,CLR,0.00,VWS V12.08,2013-02-03 00:38:00,
2013-02-02 19:43:00,38.8,26.2,30.01,SSE,158,2.2,8.5,60,0.00,,CLR,0.00,VWS V12.08,2013-02-03 00:43:00,
2013-02-02 19:48:00,39.0,26.7,30.00,SE,135,0.0,8.5,61,0.00,,CLR,0.00,VWS V12.08,2013-02-03 00:48:00,
2013-02-02 19:53:00,39.0,27.1,30.00,West,270,0.0,8.5,62,0.00,,CLR,0.00,VWS V12.08,2013-02-03 00:53:00,
2013-02-02 19:58:00,39.0,27.1,30.01,West,270,0.0,8.5,62,0.00,,CLR,0.00,VWS V12.08,2013-02-03 00:58:00,
2013-02-02 20:03:00,39.0,27.1,30.01,West,270,0.0,0.0,62,0.00,,CLR,0.00,VWS V12.08,2013-02-03 01:03:00,
2013-02-02 20:08:00,39.0,27.5,30.01,West,270,0.0,0.0,63,0.00,,CLR,0.00,VWS V12.08,2013-02-03 01:08:00,
2013-02-02 20:13:00,39.0,27.5,30.01,NNW,338,0.0,1.6,63,0.00,,CLR,0.00,VWS V12.08,2013-02-03 01:13:00,
2013-02-02 20:18:00,39.0,27.5,30.01,NE,45,0.0,1.6,63,0.00,,CLR,0.00,VWS V12.08,2013-02-03 01:18:00,
2013-02-02 20:23:00,39.0,27.5,30.01,NE,45,0.0,0.0,63,0.00,,CLR,0.00,VWS V12.08,2013-02-03 01:23:00,
2013-02-02 20:28:00,39.0,27.9,30.01,North,0,0.0,0.0,64,0.00,,CLR,0.00,VWS V12.08,2013-02-03 01:28:00,
2013-02-02 20:33:00,39.0,28.3,30.02,NNE,22,0.0,0.0,65,0.00,,CLR,0.00,VWS V12.08,2013-02-03 01:33:00,
2013-02-02 20:38:00,39.0,28.3,30.02,NNE,22,0.0,0.0,65,0.00,,CLR,0.00,VWS V12.08,2013-02-03 01:38:00,
2013-02-02 20:43:00,39.0,28.3,30.01,NNE,22,0.0,0.0,65,0.00,,CLR,0.00,VWS V12.08,2013-02-03 01:43:00,
2013-02-02 20:48:00,39.0,28.3,30.01,NNE,22,0.0,0.0,65,0.00,,CLR,0.00,VWS V12.08,2013-02-03 01:48:00,
2013-02-02 20:53:00,39.0,28.3,30.02,NNE,22,0.0,0.0,65,0.00,,CLR,0.00,VWS V12.08,2013-02-03 01:53:00,
2013-02-02 20:58:00,39.0,28.3,30.01,NNE,22,0.0,0.0,65,0.00,,CLR,0.00,VWS V12.08,2013-02-03 01:58:00,
2013-02-02 21:03:00,39.0,28.3,30.01,ENE,68,0.0,0.0,65,0.00,,CLR,0.00,VWS V12.08,2013-02-03 02:03:00,
2013-02-02 21:08:00,39.0,28.3,30.02,ENE,68,0.0,0.0,65,0.00,,CLR,0.00,VWS V12.08,2013-02-03 02:08:00,
2013-02-02 21:13:00,39.0,28.6,30.02,ENE,68,0.0,0.0,66,0.00,,CLR,0.00,VWS V12.08,2013-02-03 02:13:00,
2013-02-02 21:18:00,38.8,28.8,30.02,ENE,68,0.0,0.0,67,0.00,,CLR,0.00,VWS V12.08,2013-02-03 02:18:00,
2013-02-02 21:23:00,38.8,28.8,30.02,ENE,68,0.0,0.0,67,0.00,,CLR,0.00,VWS V12.08,2013-02-03 02:23:00,
2013-02-02 21:28:00,38.8,28.8,30.02,WNW,292,0.0,2.0,67,0.00,,CLR,0.00,VWS V12.08,2013-02-03 02:28:00,
2013-02-02 21:33:00,38.8,29.5,30.03,WNW,292,0.0,2.0,69,0.00,,CLR,0.00,VWS V12.08,2013-02-03 02:33:00,
2013-02-02 21:38:00,38.8,29.5,30.03,WNW,292,0.0,2.0,69,0.00,,CLR,0.00,VWS V12.08,2013-02-03 02:38:00,
2013-02-02 21:43:00,38.8,29.5,30.02,NW,315,0.0,0.0,69,0.00,,CLR,0.00,VWS V12.08,2013-02-03 02:43:00,
2013-02-02 21:48:00,38.8,29.5,30.02,NNW,338,0.0,0.0,69,0.00,,CLR,0.00,VWS V12.08,2013-02-03 02:48:00,
2013-02-02 21:53:00,38.5,29.6,30.02,ENE,68,0.0,0.0,70,0.00,,CLR,0.00,VWS V12.08,2013-02-03 02:53:00,
2013-02-02 21:58:00,38.5,29.6,30.01,ENE,68,0.0,0.0,70,0.00,,CLR,0.00,VWS V12.08,2013-02-03 02:58:00,
2013-02-02 22:03:00,38.5,29.6,30.01,ENE,68,0.0,0.0,70,0.00,,CLR,0.00,VWS V12.08,2013-02-03 03:03:00,
2013-02-02 22:08:00,38.3,29.4,30.01,ENE,68,0.0,0.0,70,0.00,,CLR,0.00,VWS V12.08,2013-02-03 03:08:00,
2013-02-02 22:13:00,38.3,29.7,30.01,ENE,68,0.0,0.0,71,0.00,,CLR,0.00,VWS V12.08,2013-02-03 03:13:00,
2013-02-02 22:18:00,38.3,29.7,30.01,East,90,0.0,0.0,71,0.00,,CLR,0.00,VWS V12.08,2013-02-03 03:18:00,
2013-02-02 22:23:00,38.3,29.7,30.01,ENE,68,0.0,0.0,71,0.00,,CLR,0.00,VWS V12.08,2013-02-03 03:23:00,
2013-02-02 22:28:00,38.3,29.7,30.01,ENE,68,0.0,0.0,71,0.00,,CLR,0.00,VWS V12.08,2013-02-03 03:28:00,
2013-02-02 22:33:00,38.1,29.6,30.01,East,90,0.0,0.0,71,0.00,,CLR,0.00,VWS V12.08,2013-02-03 03:33:00,
2013-02-02 22:38:00,38.1,29.6,30.01,East,90,0.0,0.0,71,0.00,,CLR,0.00,VWS V12.08,2013-02-03 03:38:00,
2013-02-02 22:43:00,38.1,29.9,30.01,East,90,0.0,0.0,72,0.00,,CLR,0.00,VWS V12.08,2013-02-03 03:43:00,
2013-02-02 22:48:00,37.9,29.7,30.00,East,90,0.0,0.0,72,0.00,,CLR,0.00,VWS V12.08,2013-02-03 03:48:00,
2013-02-02 22:53:00,37.9,29.7,30.00,East,90,0.0,0.0,72,0.00,,CLR,0.00,VWS V12.08,2013-02-03 03:53:00,
2013-02-02 22:58:00,37.9,29.7,30.00,East,90,0.0,0.0,72,0.00,,CLR,0.00,VWS V12.08,2013-02-03 03:58:00,
2013-02-02 23:03:00,37.9,29.7,29.99,East,90,0.0,0.0,72,0.00,,CLR,0.00,VWS V12.08,2013-02-03 04:03:00,
2013-02-02 23:09:00,37.8,29.6,30.00,East,90,0.0,0.0,72,0.00,,CLR,0.00,VWS V12.08,2013-02-03 04:09:00,
2013-02-02 23:14:00,37.8,29.6,30.00,East,90,0.0,0.0,72,0.00,,CLR,0.00,VWS V12.08,2013-02-03 04:14:00,
2013-02-02 23:19:00,37.8,29.9,30.00,East,90,0.0,0.0,73,0.00,,CLR,0.00,VWS V12.08,2013-02-03 04:19:00,
2013-02-02 23:24:00,37.8,29.9,30.00,East,90,0.0,0.0,73,0.00,,CLR,0.00,VWS V12.08,2013-02-03 04:24:00,
2013-02-02 23:29:00,37.6,29.7,29.99,ESE,112,0.0,0.0,73,0.00,,CLR,0.00,VWS V12.08,2013-02-03 04:29:00,
2013-02-02 23:34:00,37.8,29.9,29.99,ESE,112,0.0,0.0,73,0.00,,CLR,0.00,VWS V12.08,2013-02-03 04:34:00,
2013-02-02 23:39:00,37.6,30.1,29.99,ESE,112,0.0,0.0,74,0.00,,CLR,0.00,VWS V12.08,2013-02-03 04:39:00,
2013-02-02 23:44:00,37.6,30.1,29.99,SSW,202,0.0,0.0,74,0.00,,CLR,0.00,VWS V12.08,2013-02-03 04:44:00,
2013-02-02 23:49:00,37.6,30.1,29.98,SSW,202,0.0,0.0,74,0.00,,CLR,0.00,VWS V12.08,2013-02-03 04:49:00,
2013-02-02 23:54:00,37.6,30.1,29.98,SSW,202,0.0,0.0,74,0.00,,CLR,0.00,VWS V12.08,2013-02-03 04:54:00,
2013-02-02 23:59:00,37.6,30.4,29.98,NW,315,2.7,2.7,75,0.00,,CLR,0.00,VWS V12.08,2013-02-03 04:59:00,